.
WxDataArchive / Data Records for 2009-04-19
2009-04-18 April 2009 2009-04-20

Data Records for Sunday, 19 April 2009

Time	Temp	Chill	HIndex	Humid	Dewpt	 Wind 	HiWind	WindDir	Rain 	Barom 
-----	----	-----	------	-----	-----	------	------	-------	-----	----- 
00:00	59.2	59.2	59.2	69	49.0	0	0	---	0.00	29.991 
00:05	59.2	59.2	59.2	69	49.0	0	0	---	0.00	29.991 
00:10	59.2	59.2	59.2	69	49.0	0	0	---	0.00	29.991 
00:15	59.0	59.0	59.0	69	48.8	0	0	---	0.00	29.982 
00:20	58.9	58.9	58.9	68	48.4	0	0	---	0.00	29.982 
00:25	58.7	58.7	58.7	69	48.6	0	0	---	0.00	29.982 
00:30	58.6	58.6	58.6	70	48.8	0	0	---	0.00	29.981 
00:35	58.6	58.6	58.6	70	48.8	0	0	---	0.00	29.981 
00:40	58.4	58.4	58.4	71	49.0	0	0	---	0.00	29.981 
00:45	58.4	58.4	58.4	71	49.0	0	0	---	0.00	29.980 
00:50	58.4	58.4	58.4	71	49.0	0	0	---	0.00	29.980 
00:55	58.4	58.4	58.4	72	49.4	0	0	---	0.00	29.980 
01:00	58.4	58.4	58.4	72	49.4	0	0	---	0.00	29.980 
01:05	58.4	58.4	58.4	72	49.4	0	0	---	0.00	29.980 
01:10	58.4	58.4	58.4	72	49.4	0	0	---	0.00	29.980 
01:15	58.4	58.4	58.4	72	49.4	0	0	---	0.00	29.980 
01:20	58.4	58.4	58.4	72	49.4	0	0	---	0.00	29.980 
01:25	58.4	58.4	58.4	71	49.0	0	0	---	0.00	29.980 
01:30	58.3	58.3	58.3	72	49.3	0	0	---	0.00	29.974 
01:35	58.1	58.1	58.1	72	49.1	0	0	---	0.00	29.974 
01:40	58.0	58.0	58.0	74	49.8	0	0	---	0.00	29.974 
01:45	58.0	58.0	58.0	77	50.8	0	0	---	0.00	29.967 
01:50	58.0	58.0	58.0	74	49.8	0	1	248	0.00	29.967 
01:55	58.0	58.0	58.0	74	49.8	0	0	---	0.00	29.967 
02:00	58.0	58.0	58.0	73	49.4	0	0	---	0.00	29.963 
02:05	57.8	57.8	57.8	73	49.2	0	0	---	0.00	29.963 
02:10	57.8	57.8	57.8	73	49.2	0	0	---	0.00	29.963 
02:15	57.8	57.8	57.8	73	49.2	0	0	---	0.00	29.957 
02:20	57.6	57.6	57.6	73	49.0	0	0	---	0.00	29.957 
02:25	57.6	57.6	57.6	74	49.4	0	0	---	0.00	29.957 
02:30	57.5	57.5	57.5	74	49.3	0	0	---	0.00	29.953 
02:35	57.5	57.5	57.5	75	49.6	0	0	---	0.00	29.953 
02:40	57.3	57.3	57.3	76	49.8	0	0	---	0.00	29.953 
02:45	57.2	57.2	57.2	76	49.7	0	0	---	0.00	29.948 
02:50	57.0	57.0	57.0	76	49.5	0	0	---	0.00	29.948 
02:55	56.9	56.9	56.9	76	49.4	0	0	---	0.00	29.948 
03:00	56.7	56.7	56.7	77	49.6	0	0	---	0.00	29.940 
03:05	56.7	56.7	56.7	77	49.6	0	0	---	0.00	29.940 
03:10	56.6	56.6	56.6	77	49.5	0	0	---	0.00	29.940 
03:15	56.5	56.5	56.5	78	49.7	0	0	---	0.00	29.936 
03:20	56.5	56.5	56.5	78	49.7	0	0	---	0.00	29.936 
03:25	56.5	56.5	56.5	78	49.7	0	0	---	0.00	29.936 
03:30	56.5	56.5	56.5	79	50.1	0	0	---	0.00	29.933 
03:35	56.5	56.5	56.5	79	50.1	0	0	---	0.00	29.933 
03:40	56.3	56.3	56.3	79	49.9	0	0	---	0.00	29.933 
03:45	56.3	56.3	56.3	80	50.2	0	0	---	0.00	29.935 
03:50	56.3	56.3	56.3	79	49.9	0	0	---	0.00	29.935 
03:55	56.5	56.5	56.5	79	50.1	0	0	---	0.00	29.935 
04:00	56.5	56.5	56.5	79	50.1	0	0	---	0.00	29.936 
04:05	56.5	56.5	56.5	79	50.1	0	0	---	0.00	29.936 
04:10	56.5	56.5	56.5	80	50.4	0	0	---	0.00	29.936 
04:15	56.3	56.3	56.3	79	49.9	0	0	---	0.00	29.937 
04:20	56.3	56.3	56.3	80	50.2	0	0	---	0.00	29.937 
04:25	56.5	56.5	56.5	79	50.1	0	0	---	0.00	29.937 
04:30	56.5	56.5	56.5	78	49.7	0	0	---	0.00	29.940 
04:35	56.5	56.5	56.5	78	49.7	0	0	---	0.00	29.940 
04:40	56.6	56.6	56.6	78	49.8	0	0	---	0.00	29.940 
04:45	56.6	56.6	56.6	78	49.8	0	1	248	0.00	29.945 
04:50	56.6	56.6	56.6	79	50.2	0	1	248	0.00	29.945 
04:55	56.6	56.6	56.6	79	50.2	0	0	---	0.00	29.945 
05:00	56.7	56.7	56.7	81	50.9	0	0	---	0.00	29.946 
05:05	56.6	56.6	56.6	82	51.2	0	0	---	0.00	29.946 
05:10	56.6	56.6	56.6	83	51.5	0	0	---	0.00	29.946 
05:15	56.3	56.3	56.3	84	51.5	0	0	---	0.00	29.949 
05:20	56.2	56.2	56.2	84	51.4	0	1	248	0.00	29.949 
05:25	56.0	56.0	56.0	84	51.2	0	1	248	0.00	29.949 
05:30	55.9	55.9	55.9	84	51.1	0	0	---	0.00	29.941 
05:35	55.9	55.9	55.9	84	51.1	0	0	---	0.00	29.941 
05:40	55.7	55.7	55.7	84	50.9	0	0	---	0.00	29.941 
05:45	55.7	55.7	55.7	84	50.9	0	0	---	0.00	29.935 
05:50	55.7	55.7	55.7	84	50.9	0	1	248	0.00	29.935 
05:55	56.0	56.0	56.0	83	50.9	0	0	---	0.00	29.935 
06:00	56.0	56.0	56.0	83	50.9	0	0	---	0.00	29.929 
06:05	56.0	56.0	56.0	83	50.9	0	0	---	0.00	29.929 
06:10	56.0	56.0	56.0	83	50.9	0	0	---	0.00	29.929 
06:15	56.0	56.0	56.0	81	50.3	0	1	248	0.00	29.927 
06:20	56.0	56.0	56.0	80	49.9	0	0	---	0.00	29.927 
06:25	56.0	56.0	56.0	79	49.6	0	1	248	0.00	29.927 
06:30	56.0	56.0	56.0	78	49.2	0	1	248	0.00	29.924 
06:35	56.2	56.2	56.2	78	49.4	0	0	---	0.00	29.924 
06:40	56.2	56.2	56.2	77	49.1	0	1	248	0.00	29.924 
06:45	56.2	56.2	56.2	77	49.1	0	1	248	0.00	29.929 
06:50	56.3	56.3	56.3	76	48.8	0	1	248	0.00	29.929 
06:55	56.5	56.5	56.5	76	49.0	0	0	---	0.00	29.929 
07:00	56.5	56.5	56.5	76	49.0	0	0	---	0.00	29.933 
07:05	56.5	56.5	56.5	76	49.0	0	0	---	0.00	29.933 
07:10	56.5	56.5	56.5	77	49.4	0	0	---	0.00	29.933 
07:15	56.5	56.5	56.5	78	49.7	0	0	---	0.00	29.936 
07:20	56.5	56.5	56.5	77	49.4	0	0	---	0.00	29.936 
07:25	56.6	56.6	56.6	76	49.1	0	1	248	0.00	29.936 
07:30	56.7	56.7	56.7	75	48.9	0	1	248	0.00	29.937 
07:35	56.9	56.9	56.9	75	49.1	0	0	---	0.00	29.937 
07:40	57.0	57.0	57.0	76	49.5	0	1	248	0.00	29.937 
07:45	57.0	57.0	57.0	75	49.2	0	1	248	0.00	29.937 
07:50	57.0	57.0	57.0	75	49.2	0	1	248	0.00	29.937 
07:55	57.0	57.0	57.0	75	49.2	0	0	---	0.00	29.937 
08:00	57.0	57.0	57.0	75	49.2	0	0	---	0.00	29.938 
08:05	57.0	57.0	57.0	75	49.2	0	1	248	0.00	29.938 
08:10	57.0	57.0	57.0	74	48.8	0	1	248	0.00	29.938 
08:15	57.2	57.2	57.2	72	48.3	0	1	248	0.00	29.942 
08:20	57.5	57.5	57.5	71	48.2	0	1	248	0.00	29.942 
08:25	57.6	57.6	57.6	71	48.3	1	4	112	0.00	29.942 
08:30	57.6	57.6	57.6	70	47.9	1	3	90	0.00	29.942 
08:35	57.6	57.6	57.6	70	47.9	1	4	90	0.00	29.942 
08:40	57.3	57.3	57.3	71	48.0	1	7	90	0.00	29.942 
08:45	57.2	57.2	57.2	70	47.5	1	7	45	0.00	29.941 
08:50	56.7	56.7	56.7	69	46.6	1	6	68	0.00	29.941 
08:55	56.5	56.5	56.5	69	46.5	2	6	112	0.00	29.941 
09:00	56.2	56.2	56.2	68	45.8	1	6	22	0.00	29.943 
09:05	55.9	55.9	55.9	68	45.5	2	3	45	0.00	29.943 
09:10	55.7	55.7	55.7	68	45.3	2	5	90	0.00	29.943 
09:15	55.4	55.4	55.4	69	45.4	1	5	112	0.00	29.941 
09:20	55.3	55.3	55.3	68	44.9	2	6	45	0.00	29.941 
09:25	55.1	55.1	55.1	69	45.1	1	4	45	0.00	29.941 
09:30	55.0	55.0	55.0	70	45.4	1	5	45	0.00	29.940 
09:35	55.0	55.0	55.0	68	44.6	2	10	90	0.00	29.940 
09:40	54.8	54.8	54.8	69	44.8	1	6	112	0.00	29.940 
09:45	54.8	54.8	54.8	70	45.2	2	5	112	0.00	29.931 
09:50	54.8	54.8	54.8	69	44.8	1	4	112	0.00	29.931 
09:55	54.8	54.8	54.8	68	44.4	2	6	112	0.00	29.931 
10:00	55.0	55.0	55.0	69	45.0	1	5	338	0.00	29.930 
10:05	55.1	55.1	55.1	70	45.5	2	9	68	0.00	29.930 
10:10	55.0	55.0	55.0	67	44.2	3	7	112	0.00	29.930 
10:15	55.0	55.0	55.0	69	45.0	2	5	112	0.00	29.933 
10:20	55.0	55.0	55.0	68	44.6	1	8	112	0.00	29.933 
10:25	55.0	55.0	55.0	68	44.6	2	6	68	0.00	29.933 
10:30	54.7	54.7	54.7	67	44.0	2	7	112	0.00	29.932 
10:35	54.4	54.4	54.4	67	43.7	3	7	112	0.00	29.932 
10:40	54.1	54.1	54.1	68	43.8	2	6	112	0.00	29.932 
10:45	54.1	54.1	54.1	71	44.9	2	8	90	0.00	29.926 
10:50	53.8	53.8	53.8	71	44.6	2	10	112	0.00	29.926 
10:55	53.5	53.5	53.5	71	44.3	2	8	0	0.00	29.926 
11:00	53.1	53.1	53.1	72	44.3	2	5	112	0.00	29.929 
11:05	52.8	52.8	52.8	72	44.0	2	5	90	0.00	29.929 
11:10	52.6	52.6	52.6	72	43.8	2	7	22	0.00	29.929 
11:15	52.5	52.5	52.5	73	44.1	2	6	112	0.00	29.927 
11:20	52.5	52.5	52.5	74	44.5	2	5	45	0.00	29.927 
11:25	52.2	52.2	52.2	74	44.2	2	10	112	0.00	29.927 
11:30	52.0	52.0	52.0	75	44.3	2	9	112	0.00	29.931 
11:35	51.7	51.7	51.7	77	44.7	4	11	112	0.00	29.931 
11:40	51.6	51.6	51.6	79	45.3	3	10	112	0.00	29.931 
11:45	51.4	51.4	51.4	79	45.1	4	7	112	0.00	29.929 
11:50	51.3	51.3	51.3	80	45.3	4	7	112	0.00	29.929 
11:55	51.3	51.3	51.3	80	45.3	2	5	68	0.00	29.929 
12:00	51.6	51.6	51.6	81	46.0	2	6	112	0.00	29.919 
12:05	51.7	51.7	51.7	82	46.4	2	9	112	0.00	29.919 
12:10	51.7	51.7	51.7	81	46.1	2	7	112	0.00	29.919 
12:15	51.4	51.4	51.4	81	45.8	4	8	112	0.00	29.922 
12:20	51.3	51.3	51.3	81	45.7	3	7	112	0.00	29.922 
12:25	51.3	51.3	51.3	81	45.7	4	10	112	0.00	29.922 
12:30	51.3	51.3	51.3	83	46.3	3	9	112	0.00	29.922 
12:35	51.3	51.3	51.3	81	45.7	3	9	112	0.00	29.922 
12:40	51.3	51.3	51.3	82	46.0	3	7	112	0.00	29.922 
12:45	51.3	51.3	51.3	82	46.0	3	10	112	0.00	29.913 
12:50	51.6	51.6	51.6	83	46.6	3	9	90	0.00	29.913 
12:55	51.9	51.9	51.9	81	46.3	5	11	90	0.00	29.913 
13:00	52.2	52.2	52.2	82	46.9	4	10	112	0.00	29.903 
13:05	52.5	52.5	52.5	81	46.8	5	10	112	0.00	29.903 
13:10	52.5	52.5	52.5	79	46.2	5	13	112	0.00	29.903 
13:15	52.3	52.3	52.3	79	46.0	4	14	90	0.00	29.902 
13:20	52.0	52.0	52.0	80	46.0	5	12	90	0.00	29.902 
13:25	52.3	52.3	52.3	80	46.3	3	11	90	0.00	29.902 
13:30	52.5	52.5	52.5	80	46.5	5	10	112	0.00	29.900 
13:35	52.8	52.8	52.8	79	46.5	4	10	90	0.00	29.900 
13:40	53.1	53.1	53.1	78	46.4	4	10	90	0.00	29.900 
13:45	53.2	53.2	53.2	77	46.2	3	7	112	0.00	29.888 
13:50	53.2	53.2	53.2	77	46.2	3	14	112	0.00	29.888 
13:55	53.2	53.2	53.2	77	46.2	4	10	112	0.00	29.888 
14:00	52.9	52.9	52.9	77	45.9	4	11	112	0.00	29.887 
14:05	52.8	52.8	52.8	77	45.8	4	12	112	0.00	29.887 
14:10	52.8	52.8	52.8	78	46.1	2	9	90	0.00	29.887 
14:15	52.5	52.5	52.5	77	45.5	5	12	90	0.00	29.879 
14:20	52.3	52.3	52.3	78	45.6	5	9	112	0.00	29.879 
14:25	52.3	52.3	52.3	78	45.6	3	9	112	0.00	29.879 
14:30	52.5	52.5	52.5	78	45.8	4	11	112	0.00	29.874 
14:35	52.6	52.6	52.6	79	46.3	4	11	112	0.00	29.874 
14:40	52.8	52.8	52.8	77	45.8	5	12	112	0.00	29.874 
14:45	52.9	52.9	52.9	78	46.2	4	10	112	0.00	29.870 
14:50	53.2	53.2	53.2	77	46.2	4	10	112	0.00	29.870 
14:55	53.3	53.3	53.3	77	46.3	5	11	90	0.00	29.870 
15:00	53.2	53.2	53.2	77	46.2	5	11	112	0.00	29.869 
15:05	53.1	53.1	53.1	77	46.1	6	11	112	0.00	29.869 
15:10	53.3	53.3	53.3	77	46.3	3	9	112	0.00	29.869 
15:15	53.3	53.3	53.3	77	46.3	4	10	112	0.00	29.855 
15:20	53.1	53.1	53.1	77	46.1	6	12	112	0.00	29.855 
15:25	52.9	52.9	52.9	78	46.2	6	14	112	0.00	29.855 
15:30	53.1	53.1	53.1	79	46.8	2	6	112	0.00	29.853 
15:35	53.1	53.1	53.1	79	46.8	3	9	112	0.00	29.853 
15:40	52.8	52.8	52.8	79	46.5	4	11	112	0.00	29.853 
15:45	52.5	52.5	52.5	79	46.2	4	10	112	0.00	29.842 
15:50	52.3	52.3	52.3	80	46.3	5	11	112	0.00	29.842 
15:55	52.3	52.3	52.3	80	46.3	3	10	112	0.00	29.842 
16:00	52.3	52.3	52.3	80	46.3	2	6	112	0.00	29.837 
16:05	52.3	52.3	52.3	80	46.3	3	6	90	0.00	29.837 
16:10	52.2	52.2	52.2	80	46.2	4	13	112	0.00	29.837 
16:15	52.0	52.0	52.0	80	46.0	5	11	112	0.00	29.831 
16:20	51.7	51.7	51.7	80	45.7	3	10	90	0.00	29.831 
16:25	51.7	51.7	51.7	81	46.1	2	6	90	0.00	29.831 
16:30	51.4	51.4	51.4	83	46.4	4	13	112	0.00	29.825 
16:35	51.1	51.1	51.1	83	46.1	4	10	112	0.00	29.825 
16:40	51.0	51.0	51.0	83	46.0	4	14	90	0.00	29.825 
16:45	51.0	51.0	51.0	83	46.0	2	6	112	0.00	29.822 
16:50	51.0	51.0	51.0	82	45.7	4	10	112	0.00	29.822 
16:55	51.0	51.0	51.0	82	45.7	4	12	112	0.00	29.822 
17:00	51.0	51.0	51.0	83	46.0	5	11	112	0.00	29.810 
17:05	50.8	50.8	50.8	84	46.1	3	7	90	0.00	29.810 
17:10	50.7	50.7	50.7	83	45.7	4	11	112	0.00	29.810 
17:15	50.5	50.5	50.5	84	45.8	4	9	112	0.00	29.809 
17:20	50.4	50.4	50.4	84	45.7	4	12	112	0.00	29.809 
17:25	50.1	50.1	50.1	84	45.5	4	12	112	0.00	29.809 
17:30	49.9	48.1	49.9	84	45.3	5	12	112	0.00	29.804 
17:35	49.6	48.4	49.6	85	45.3	4	10	112	0.00	29.804 
17:40	49.5	48.3	49.5	86	45.5	4	12	112	0.00	29.804 
17:45	49.2	49.2	49.2	87	45.5	3	9	112	0.01	29.800 
17:50	49.1	49.1	49.1	88	45.7	3	8	112	0.01	29.800 
17:55	48.8	48.8	48.8	88	45.4	3	9	112	0.00	29.800 
18:00	48.5	48.5	48.5	89	45.4	3	7	112	0.01	29.801 
18:05	48.3	48.3	48.3	89	45.2	3	6	112	0.00	29.801 
18:10	48.0	46.6	48.0	90	45.2	4	10	112	0.01	29.801 
18:15	47.7	47.7	47.7	90	44.9	3	7	112	0.01	29.800 
18:20	47.4	45.2	47.4	91	44.9	5	11	90	0.01	29.800 
18:25	47.4	47.4	47.4	91	44.9	3	7	112	0.01	29.800 
18:30	47.1	47.1	47.1	92	44.9	3	12	112	0.01	29.798 
18:35	47.0	47.0	47.0	92	44.8	3	7	135	0.00	29.798 
18:40	46.8	46.8	46.8	92	44.6	3	11	112	0.01	29.798 
18:45	46.8	46.8	46.8	92	44.6	3	10	90	0.01	29.795 
18:50	46.7	46.7	46.7	92	44.5	2	8	112	0.00	29.795 
18:55	46.7	46.7	46.7	93	44.8	2	10	112	0.01	29.795 
19:00	46.7	46.7	46.7	93	44.8	3	10	112	0.00	29.783 
19:05	46.7	46.7	46.7	93	44.8	2	9	112	0.01	29.783 
19:10	46.7	46.7	46.7	93	44.8	2	8	112	0.01	29.783 
19:15	46.5	46.5	46.5	93	44.6	3	13	112	0.01	29.780 
19:20	46.5	44.8	46.5	94	44.9	4	10	135	0.00	29.780 
19:25	46.5	46.5	46.5	94	44.9	3	7	112	0.01	29.780 
19:30	46.5	46.5	46.5	94	44.9	3	7	112	0.01	29.768 
19:35	46.5	46.5	46.5	94	44.9	3	9	112	0.01	29.768 
19:40	46.5	46.5	46.5	94	44.9	3	8	112	0.01	29.768 
19:45	46.5	46.5	46.5	94	44.9	2	6	45	0.00	29.764 
19:50	46.5	44.8	46.5	94	44.9	4	8	112	0.01	29.764 
19:55	46.5	46.5	46.5	95	45.1	3	9	90	0.01	29.764 
20:00	46.5	46.5	46.5	95	45.1	3	12	90	0.00	29.757 
20:05	46.5	46.5	46.5	95	45.1	3	10	112	0.01	29.757 
20:10	46.4	44.7	46.4	95	45.0	4	11	112	0.01	29.757 
20:15	46.4	46.4	46.4	95	45.0	3	7	112	0.01	29.752 
20:20	46.4	44.7	46.4	95	45.0	4	9	112	0.01	29.752 
20:25	46.2	44.5	46.2	95	44.8	4	12	135	0.00	29.752 
20:30	46.2	46.2	46.2	95	44.8	3	7	112	0.01	29.751 
20:35	46.2	46.2	46.2	95	44.8	3	10	112	0.01	29.751 
20:40	46.2	46.2	46.2	95	44.8	3	11	112	0.01	29.751 
20:45	46.2	44.5	46.2	95	44.8	4	12	90	0.01	29.746 
20:50	46.2	44.5	46.2	95	44.8	4	10	112	0.01	29.746 
20:55	46.2	44.5	46.2	95	44.8	4	11	112	0.01	29.746 
21:00	46.2	44.5	46.2	95	44.8	4	10	112	0.01	29.744 
21:05	46.2	43.8	46.2	95	44.8	5	14	112	0.01	29.744 
21:10	46.2	44.5	46.2	95	44.8	4	11	90	0.01	29.744 
21:15	46.2	44.5	46.2	95	44.8	4	11	90	0.01	29.744 
21:20	46.2	44.5	46.2	95	44.8	4	10	112	0.02	29.744 
21:25	46.2	46.2	46.2	95	44.8	2	5	90	0.02	29.744 
21:30	46.4	46.4	46.4	95	45.0	3	9	112	0.04	29.740 
21:35	46.4	46.4	46.4	96	45.3	2	9	112	0.01	29.740 
21:40	46.5	46.5	46.5	96	45.4	3	11	112	0.02	29.740 
21:45	46.5	46.5	46.5	96	45.4	2	7	112	0.02	29.736 
21:50	46.5	44.8	46.5	96	45.4	4	9	112	0.02	29.736 
21:55	46.4	46.4	46.4	96	45.3	2	7	90	0.02	29.736 
22:00	46.4	46.4	46.4	96	45.3	2	7	22	0.01	29.734 
22:05	46.2	46.2	46.2	96	45.1	2	6	112	0.02	29.734 
22:10	46.2	44.5	46.2	96	45.1	4	10	112	0.01	29.734 
22:15	46.4	46.4	46.4	96	45.3	3	11	90	0.01	29.727 
22:20	46.4	46.4	46.4	96	45.3	2	11	45	0.02	29.727 
22:25	46.4	46.4	46.4	96	45.3	2	7	112	0.01	29.727 
22:30	46.4	46.4	46.4	96	45.3	2	6	112	0.01	29.720 
22:35	46.4	46.4	46.4	96	45.3	2	5	112	0.01	29.720 
22:40	46.5	46.5	46.5	96	45.4	2	6	22	0.01	29.720 
22:45	46.5	44.8	46.5	96	45.4	4	9	90	0.00	29.708 
22:50	46.5	46.5	46.5	96	45.4	2	7	112	0.01	29.708 
22:55	46.5	44.8	46.5	96	45.4	4	12	112	0.02	29.708 
23:00	46.5	46.5	46.5	96	45.4	2	8	112	0.02	29.700 
23:05	46.7	46.7	46.7	96	45.6	3	7	90	0.02	29.700 
23:10	46.5	46.5	46.5	96	45.4	1	6	112	0.02	29.700 
23:15	46.7	46.7	46.7	96	45.6	2	7	112	0.02	29.691 
23:20	46.7	46.7	46.7	96	45.6	2	5	112	0.01	29.691 
23:25	46.8	46.8	46.8	96	45.7	1	6	112	0.01	29.691 
23:30	46.8	46.8	46.8	96	45.7	2	5	112	0.02	29.684 
23:35	46.8	46.8	46.8	96	45.7	2	7	90	0.01	29.684 
23:40	46.7	46.7	46.7	96	45.6	1	4	68	0.02	29.684 
23:45	46.7	46.7	46.7	96	45.6	2	7	68	0.01	29.670 
23:50	46.7	46.7	46.7	96	45.6	3	6	112	0.02	29.670 
23:55	46.8	46.8	46.8	96	45.7	2	7	90	0.01	29.670 

CoCoRaHS
IN-AL-39
A2 Web Hosting
Creative Commons License
GoDaddy
search engine by freefind advanced

loaded 2018-11-13 17:09:18 • last modified 2010-11-18 10:43:29
Privacy PolicyDisclaimer
• wx.awcolley.com is powered by PmWiki v.2002016 •
• all content (unless otherwise noted) © 2018 A W Colley